createdAt,value
2023-03-12T00:00:17.110Z,9.63
2023-03-12T00:02:44.882Z,8.97
2023-03-12T00:05:12.798Z,8.55
2023-03-12T00:07:40.495Z,8.04
2023-03-12T00:10:08.898Z,8.35
2023-03-12T00:12:36.658Z,8.18
2023-03-12T00:15:05.398Z,7.44
2023-03-12T00:17:33.211Z,7.20
2023-03-12T00:20:00.809Z,7.26
2023-03-12T00:22:29.281Z,7.20
2023-03-12T00:24:58.531Z,6.81
2023-03-12T00:27:27.458Z,7.19
2023-03-12T00:29:55.599Z,6.83
2023-03-12T00:32:23.789Z,6.69
2023-03-12T00:34:55.877Z,6.69
2023-03-12T00:37:23.708Z,6.62
2023-03-12T00:39:51.456Z,6.30
2023-03-12T00:42:20.194Z,6.03
2023-03-12T00:44:48.153Z,5.90
2023-03-12T00:47:15.893Z,6.00
2023-03-12T00:49:43.484Z,6.43
2023-03-12T00:52:11.471Z,6.59
2023-03-12T00:54:39.412Z,5.90
2023-03-12T00:57:07.203Z,5.84
2023-03-12T00:59:40.548Z,5.37
2023-03-12T01:02:09.622Z,5.67
2023-03-12T01:04:37.387Z,5.98
2023-03-12T01:07:05.239Z,5.61
2023-03-12T01:09:32.897Z,5.63
2023-03-12T01:12:00.648Z,5.36
2023-03-12T01:14:28.402Z,4.98
2023-03-12T01:16:56.045Z,4.46
2023-03-12T01:19:23.709Z,4.62
2023-03-12T01:21:51.535Z,4.20
2023-03-12T01:24:19.644Z,3.66
2023-03-12T01:26:47.322Z,3.84
2023-03-12T01:29:15.027Z,3.84
2023-03-12T01:31:42.836Z,3.54
2023-03-12T01:34:12.456Z,3.84
2023-03-12T01:36:41.802Z,3.80
2023-03-12T01:39:09.477Z,3.76
2023-03-12T01:41:37.433Z,3.81
2023-03-12T01:44:07.755Z,3.84
2023-03-12T01:46:43.177Z,3.53
2023-03-12T01:49:29.908Z,3.82
2023-03-12T01:52:01.948Z,3.54
2023-03-12T01:54:53.185Z,3.66
2023-03-12T01:57:47.374Z,3.68
2023-03-12T02:00:20.713Z,3.73
2023-03-12T02:02:51.551Z,3.54
2023-03-12T02:05:44.606Z,3.38
2023-03-12T02:08:16.322Z,3.58
2023-03-12T02:10:44.191Z,3.68
2023-03-12T02:13:12.869Z,3.79
2023-03-12T02:15:46.071Z,3.46
2023-03-12T02:18:18.745Z,3.63
2023-03-12T02:20:56.730Z,3.71
2023-03-12T02:23:50.621Z,3.75
2023-03-12T02:26:21.790Z,3.64
2023-03-12T02:28:51.153Z,3.59
2023-03-12T02:31:24.752Z,3.81
2023-03-12T02:33:53.347Z,3.74
2023-03-12T02:36:22.280Z,3.70
2023-03-12T02:38:53.485Z,3.54
2023-03-12T02:41:26.768Z,3.54
2023-03-12T02:43:59.965Z,3.81
2023-03-12T02:46:29.743Z,3.27
2023-03-12T02:48:58.046Z,3.99
2023-03-12T02:51:25.826Z,3.71
2023-03-12T02:53:55.170Z,3.76
2023-03-12T02:56:25.856Z,3.53
2023-03-12T02:58:54.395Z,3.60
2023-03-12T03:01:25.225Z,3.56
2023-03-12T03:03:54.596Z,3.48
2023-03-12T03:06:23.657Z,3.67
2023-03-12T03:08:51.731Z,3.86
2023-03-12T03:11:24.460Z,3.77
2023-03-12T03:13:55.695Z,3.73
2023-03-12T03:16:24.508Z,3.47
2023-03-12T03:18:53.147Z,3.54
2023-03-12T03:21:21.005Z,3.72
2023-03-12T03:23:49.890Z,3.70
2023-03-12T03:26:20.642Z,3.77
2023-03-12T03:28:49.661Z,3.50
2023-03-12T03:31:19.220Z,3.67
2023-03-12T03:33:47.196Z,3.38
2023-03-12T03:36:15.800Z,3.49
2023-03-12T03:38:51.572Z,3.45
2023-03-12T03:41:21.575Z,3.32
2023-03-12T03:43:49.435Z,3.63
2023-03-12T03:46:19.858Z,3.66
2023-03-12T03:48:53.035Z,3.77
2023-03-12T03:51:22.324Z,3.83
2023-03-12T03:53:55.268Z,3.82
2023-03-12T03:56:22.977Z,3.74
2023-03-12T03:58:51.473Z,3.75
2023-03-12T04:01:21.271Z,3.88
2023-03-12T04:03:50.371Z,4.04
2023-03-12T04:06:18.329Z,3.90
2023-03-12T04:08:46.052Z,4.05
2023-03-12T04:11:19.960Z,4.11
2023-03-12T04:13:47.977Z,4.06
2023-03-12T04:16:18.864Z,4.20
2023-03-12T04:18:48.431Z,4.34
2023-03-12T04:21:17.703Z,4.56
2023-03-12T04:23:46.597Z,4.28
2023-03-12T04:26:15.809Z,4.52
2023-03-12T04:28:44.931Z,4.78
2023-03-12T04:31:13.673Z,4.60
2023-03-12T04:33:46.899Z,4.64
2023-03-12T04:36:16.284Z,4.69
2023-03-12T04:38:46.739Z,4.71
2023-03-12T04:41:17.141Z,4.58
2023-03-12T04:43:52.256Z,4.78
2023-03-12T04:46:21.112Z,4.53
2023-03-12T04:48:49.599Z,4.59
2023-03-12T04:51:18.070Z,4.61
2023-03-12T04:53:46.496Z,4.63
2023-03-12T04:56:15.689Z,4.73
2023-03-12T04:58:44.604Z,4.54
2023-03-12T05:01:34.436Z,4.61
2023-03-12T05:04:07.317Z,4.83
2023-03-12T05:06:36.259Z,4.35
2023-03-12T05:09:04.236Z,4.46
2023-03-12T05:11:32.398Z,4.42
2023-03-12T05:14:00.335Z,4.48
2023-03-12T05:16:28.904Z,4.42
2023-03-12T05:18:56.992Z,4.66
2023-03-12T05:21:26.092Z,4.34
2023-03-12T05:23:56.279Z,4.31
2023-03-12T05:26:32.963Z,4.07
2023-03-12T05:29:09.065Z,4.24
2023-03-12T05:31:37.220Z,4.04
2023-03-12T05:34:07.063Z,4.15
2023-03-12T05:36:39.632Z,4.39
2023-03-12T05:39:08.600Z,4.32
2023-03-12T05:41:36.946Z,4.29
2023-03-12T05:44:13.718Z,3.98
2023-03-12T05:46:44.156Z,4.04
2023-03-12T05:49:12.344Z,3.94
2023-03-12T05:51:40.056Z,4.05
2023-03-12T05:54:09.337Z,3.93
2023-03-12T05:56:37.868Z,4.39
2023-03-12T05:59:07.260Z,4.46
2023-03-12T06:01:35.287Z,4.41
2023-03-12T06:04:04.746Z,4.21
2023-03-12T06:06:37.492Z,4.46
2023-03-12T06:09:07.075Z,4.45
2023-03-12T06:11:35.713Z,4.35
2023-03-12T06:14:04.030Z,4.24
2023-03-12T06:16:32.610Z,4.69
2023-03-12T06:19:03.170Z,4.46
2023-03-12T06:21:34.420Z,4.56
2023-03-12T06:24:03.682Z,4.94
2023-03-12T06:26:40.545Z,4.88
2023-03-12T06:29:08.588Z,5.15
2023-03-12T06:31:38.884Z,5.11
2023-03-12T06:34:07.030Z,5.38
2023-03-12T06:36:35.378Z,5.08
2023-03-12T06:39:06.350Z,5.14
2023-03-12T06:41:34.253Z,5.25
2023-03-12T06:44:06.036Z,5.43
2023-03-12T06:46:34.437Z,5.63
2023-03-12T06:49:02.264Z,5.68
2023-03-12T06:51:29.950Z,6.11
2023-03-12T06:53:57.738Z,5.77
2023-03-12T06:56:25.491Z,5.99
2023-03-12T06:58:53.396Z,5.92
2023-03-12T07:01:21.023Z,5.68
2023-03-12T07:03:49.183Z,5.31
2023-03-12T07:06:20.111Z,5.34
2023-03-12T07:08:48.849Z,5.23
2023-03-12T07:11:17.854Z,5.26
2023-03-12T07:13:46.277Z,5.54
2023-03-12T07:16:14.111Z,5.12
2023-03-12T07:18:42.640Z,5.42
2023-03-12T07:21:10.388Z,5.23
2023-03-12T07:23:37.995Z,5.47
2023-03-12T07:26:06.508Z,5.45
2023-03-12T07:28:34.311Z,5.42
2023-03-12T07:31:05.899Z,5.21
2023-03-12T07:33:33.708Z,5.59
2023-03-12T07:36:02.991Z,5.93
2023-03-12T07:38:32.021Z,6.26
2023-03-12T07:41:00.634Z,6.08
2023-03-12T07:43:29.388Z,5.97
2023-03-12T07:45:57.430Z,5.99
2023-03-12T07:48:25.147Z,6.14
2023-03-12T07:50:52.880Z,6.16
2023-03-12T07:53:21.309Z,6.20
2023-03-12T07:55:49.367Z,5.90
2023-03-12T07:58:18.158Z,5.99
2023-03-12T08:00:46.589Z,6.39
2023-03-12T08:03:14.639Z,6.60
2023-03-12T08:05:43.157Z,6.20
2023-03-12T08:08:11.120Z,6.21
2023-03-12T08:10:39.138Z,6.04
2023-03-12T08:13:06.852Z,6.18
2023-03-12T08:15:34.991Z,6.45
2023-03-12T08:18:02.822Z,6.19
2023-03-12T08:20:31.211Z,6.16
2023-03-12T08:22:58.953Z,5.95
2023-03-12T08:25:26.625Z,6.23
2023-03-12T08:27:54.424Z,5.79
2023-03-12T08:30:22.350Z,5.97
2023-03-12T08:32:50.168Z,5.20
2023-03-12T08:35:17.933Z,5.28
2023-03-12T08:37:45.953Z,4.73
2023-03-12T08:40:14.182Z,4.95
2023-03-12T08:42:43.851Z,4.88
2023-03-12T08:45:13.309Z,4.48
2023-03-12T08:47:41.916Z,4.61
2023-03-12T08:50:12.082Z,4.34
2023-03-12T08:52:40.405Z,4.12
2023-03-12T08:55:08.621Z,4.23
2023-03-12T08:57:36.328Z,4.32
2023-03-12T09:00:11.726Z,4.36
2023-03-12T09:02:39.853Z,4.59
2023-03-12T09:05:08.300Z,5.18
2023-03-12T09:07:36.261Z,5.32
2023-03-12T09:10:04.501Z,5.90
2023-03-12T09:12:32.373Z,6.36
2023-03-12T09:15:04.806Z,6.33
2023-03-12T09:17:33.335Z,6.70
2023-03-12T09:20:01.330Z,6.91
2023-03-12T09:22:30.911Z,6.60
2023-03-12T09:24:58.818Z,6.93
2023-03-12T09:27:26.748Z,7.27
2023-03-12T09:30:02.976Z,7.19
2023-03-12T09:32:30.830Z,6.80
2023-03-12T09:34:58.643Z,6.83
2023-03-12T09:37:27.000Z,7.09
2023-03-12T09:39:54.931Z,7.31
2023-03-12T09:42:29.709Z,8.07
2023-03-12T09:45:03.582Z,8.09
2023-03-12T09:47:36.766Z,8.44
2023-03-12T09:50:16.450Z,8.69
2023-03-12T09:53:06.840Z,8.69
2023-03-12T09:55:40.184Z,9.25
2023-03-12T09:58:25.078Z,9.47
2023-03-12T10:01:07.195Z,10.21
2023-03-12T10:03:44.037Z,10.66
2023-03-12T10:06:26.583Z,11.27
2023-03-12T10:09:17.043Z,11.47
2023-03-12T10:12:06.272Z,11.88
2023-03-12T10:14:52.968Z,12.08
2023-03-12T10:17:20.789Z,12.11
2023-03-12T10:19:55.833Z,12.22
2023-03-12T10:22:42.351Z,12.89
2023-03-12T10:25:28.672Z,12.89
2023-03-12T10:28:10.564Z,13.35
2023-03-12T10:30:47.842Z,13.68
2023-03-12T10:33:19.473Z,13.41
2023-03-12T10:35:50.293Z,13.39
2023-03-12T10:38:29.659Z,13.15
2023-03-12T10:40:57.504Z,13.18
2023-03-12T10:43:25.406Z,12.98
2023-03-12T10:46:15.129Z,12.62
2023-03-12T10:48:44.088Z,13.00
2023-03-12T10:51:13.701Z,13.22
2023-03-12T10:53:48.450Z,12.97
2023-03-12T10:56:19.616Z,12.66
2023-03-12T10:58:51.333Z,12.79
2023-03-12T11:01:29.898Z,13.11
2023-03-12T11:04:31.525Z,12.50
2023-03-12T11:07:19.661Z,11.96
2023-03-12T11:10:03.466Z,12.38
2023-03-12T11:12:32.169Z,12.11
2023-03-12T11:15:00.129Z,11.93
2023-03-12T11:17:32.983Z,12.20
2023-03-12T11:20:18.018Z,11.91
2023-03-12T11:22:45.719Z,11.27
2023-03-12T11:25:22.263Z,10.80
2023-03-12T11:28:02.999Z,11.08
2023-03-12T11:30:39.198Z,10.42
2023-03-12T11:33:09.191Z,10.15
2023-03-12T11:36:09.425Z,10.32
2023-03-12T11:38:49.895Z,9.57
2023-03-12T11:41:36.362Z,9.67
2023-03-12T11:44:21.257Z,10.03
2023-03-12T11:47:21.983Z,10.91
2023-03-12T11:50:20.580Z,10.25
2023-03-12T12:39:11.315Z,12.24
2023-03-12T12:42:02.295Z,12.54
2023-03-12T12:44:52.684Z,12.76
2023-03-12T12:47:40.327Z,13.92
2023-03-12T12:50:14.866Z,12.91
2023-03-12T12:52:44.163Z,14.68
2023-03-12T12:55:11.800Z,13.28
2023-03-12T12:57:45.835Z,14.04
2023-03-12T13:00:32.397Z,13.36
2023-03-12T13:03:00.992Z,12.98
2023-03-12T13:05:37.886Z,13.30
2023-03-12T13:08:08.882Z,15.80
2023-03-12T13:10:36.790Z,15.63
2023-03-12T13:13:13.487Z,15.68
2023-03-12T13:15:44.088Z,15.89
2023-03-12T13:18:23.423Z,14.72
2023-03-12T13:20:53.998Z,16.35
2023-03-12T13:23:31.130Z,16.73
2023-03-12T13:26:18.605Z,16.53
2023-03-12T13:29:11.240Z,17.31
2023-03-12T13:31:41.010Z,15.96
2023-03-12T13:34:20.890Z,16.88
2023-03-12T13:36:52.427Z,16.33
2023-03-12T13:39:37.196Z,17.61
2023-03-12T13:42:23.995Z,14.72
2023-03-12T13:44:53.656Z,14.79
2023-03-12T13:47:31.792Z,16.64
2023-03-12T13:50:13.686Z,17.02
2023-03-12T13:52:46.216Z,16.60
2023-03-12T13:55:14.016Z,18.37
2023-03-12T13:57:46.277Z,17.66
2023-03-12T14:00:31.153Z,16.24
2023-03-12T14:03:19.827Z,15.67
2023-03-12T14:05:58.190Z,17.62
2023-03-12T14:08:46.847Z,15.79
2023-03-12T14:11:45.071Z,14.87
2023-03-12T14:14:48.179Z,16.77
2023-03-12T14:17:27.390Z,15.80
2023-03-12T14:20:21.759Z,15.46
2023-03-12T14:22:59.180Z,17.33
2023-03-12T14:25:35.714Z,17.70
2023-03-12T14:28:12.644Z,18.30
2023-03-12T14:31:05.753Z,16.67
2023-03-12T14:34:04.443Z,17.42
2023-03-12T14:36:58.908Z,15.38
2023-03-12T14:39:32.455Z,15.45
2023-03-12T14:42:08.284Z,15.32
2023-03-12T14:44:39.727Z,16.47
2023-03-12T14:47:11.697Z,16.07
2023-03-12T14:49:45.889Z,17.08
2023-03-12T14:52:20.683Z,17.04
2023-03-12T14:55:01.145Z,16.95
2023-03-12T14:57:29.048Z,17.07
2023-03-12T14:59:59.186Z,17.26
2023-03-12T15:02:30.696Z,16.89
2023-03-12T15:05:02.514Z,15.73
2023-03-12T15:07:39.607Z,16.47
2023-03-12T15:10:21.029Z,17.26
2023-03-12T15:12:50.377Z,16.07
2023-03-12T15:15:42.558Z,16.06
2023-03-12T15:18:18.651Z,15.98
2023-03-12T15:20:49.657Z,16.15
2023-03-12T15:23:21.472Z,16.03
2023-03-12T15:26:08.177Z,15.66
2023-03-12T15:28:36.384Z,14.32
2023-03-12T15:31:16.744Z,16.12
2023-03-12T15:33:45.443Z,16.42
2023-03-12T15:36:19.017Z,16.14
2023-03-12T15:39:13.226Z,17.42
2023-03-12T15:41:49.697Z,17.21
2023-03-12T15:44:24.363Z,16.09
2023-03-12T15:47:11.364Z,16.23
2023-03-12T15:49:40.774Z,15.34
2023-03-12T15:52:22.165Z,15.85
2023-03-12T15:55:05.351Z,16.34
2023-03-12T15:57:35.233Z,17.96
2023-03-12T16:00:12.453Z,16.73
2023-03-12T16:02:50.696Z,14.92
2023-03-12T16:05:23.035Z,14.02
2023-03-12T16:07:51.025Z,15.70
2023-03-12T16:10:22.530Z,14.25
2023-03-12T16:12:59.985Z,16.11
2023-03-12T16:15:32.392Z,15.06
2023-03-12T16:18:00.865Z,15.73
2023-03-12T16:20:29.237Z,15.61
2023-03-12T16:22:57.476Z,15.04
2023-03-12T16:25:25.990Z,15.84
2023-03-12T16:27:58.674Z,16.02
2023-03-12T16:30:30.767Z,17.10
2023-03-12T16:33:01.468Z,16.54
2023-03-12T16:35:32.104Z,15.53
2023-03-12T16:38:01.953Z,15.05
2023-03-12T16:40:34.924Z,14.69
2023-03-12T16:43:14.593Z,15.51
2023-03-12T16:45:46.115Z,15.91
2023-03-12T16:48:20.346Z,16.45
2023-03-12T16:50:57.090Z,16.06
2023-03-12T16:53:25.516Z,15.92
2023-03-12T16:56:01.679Z,14.60
2023-03-12T16:58:31.387Z,14.43
2023-03-12T17:01:00.296Z,14.26
2023-03-12T17:03:36.142Z,15.28
2023-03-12T17:06:05.991Z,16.11
2023-03-12T17:08:36.064Z,14.72
2023-03-12T17:11:12.463Z,15.19
2023-03-12T17:13:40.586Z,14.59
2023-03-12T17:16:10.622Z,14.00
2023-03-12T17:18:39.600Z,15.23
2023-03-12T17:21:10.610Z,14.57
2023-03-12T17:23:40.305Z,15.18
2023-03-12T17:26:09.424Z,16.36
2023-03-12T17:28:37.719Z,15.10
2023-03-12T17:31:05.839Z,13.91
2023-03-12T17:33:33.898Z,14.92
2023-03-12T17:36:10.112Z,15.13
2023-03-12T17:38:38.456Z,15.40
2023-03-12T17:41:16.528Z,14.12
2023-03-12T17:43:51.481Z,14.84
2023-03-12T17:46:19.379Z,14.27
2023-03-12T17:48:47.336Z,13.84
2023-03-12T17:51:15.132Z,14.70
2023-03-12T17:53:43.468Z,14.33
2023-03-12T17:56:12.734Z,14.67
2023-03-12T17:58:40.741Z,14.20
2023-03-12T18:01:08.657Z,13.69
2023-03-12T18:03:36.858Z,15.56
2023-03-12T18:06:05.316Z,14.05
2023-03-12T18:08:33.552Z,14.38
2023-03-12T18:11:03.592Z,15.31
2023-03-12T18:13:32.056Z,12.69
2023-03-12T18:16:00.561Z,13.17
2023-03-12T18:18:28.949Z,13.08
2023-03-12T18:20:56.982Z,14.27
2023-03-12T18:23:25.676Z,13.76
2023-03-12T18:25:53.554Z,14.11
2023-03-12T18:28:22.647Z,13.67
2023-03-12T18:30:51.035Z,12.68
2023-03-12T18:33:18.804Z,13.41
2023-03-12T18:35:47.550Z,12.54
2023-03-12T18:38:15.342Z,11.97
2023-03-12T18:40:43.107Z,12.15
2023-03-12T18:43:11.319Z,11.99
2023-03-12T18:45:44.065Z,13.36
2023-03-12T18:48:11.880Z,13.20
2023-03-12T18:50:39.982Z,12.81
2023-03-12T18:53:07.795Z,12.54
2023-03-12T18:55:35.536Z,12.99
2023-03-12T18:58:03.389Z,12.18
2023-03-12T19:00:31.186Z,12.45
2023-03-12T19:02:59.008Z,12.33
2023-03-12T19:05:26.931Z,12.08
2023-03-12T19:07:54.620Z,12.92
2023-03-12T19:10:22.393Z,11.99
2023-03-12T19:12:53.362Z,13.20
2023-03-12T19:15:25.433Z,13.91
2023-03-12T19:17:54.393Z,14.16
2023-03-12T19:20:22.557Z,14.20
2023-03-12T19:22:50.651Z,14.82
2023-03-12T19:25:18.637Z,13.87
2023-03-12T19:27:46.396Z,14.47
2023-03-12T19:30:15.001Z,13.87
2023-03-12T19:32:44.461Z,12.54
2023-03-12T19:35:15.071Z,12.07
2023-03-12T19:37:43.395Z,10.82
2023-03-12T19:40:13.344Z,11.00
2023-03-12T19:42:41.250Z,12.51
2023-03-12T19:45:09.695Z,13.16
2023-03-12T19:47:37.465Z,12.93
2023-03-12T19:50:05.650Z,13.48
2023-03-12T19:52:33.704Z,12.54
2023-03-12T19:55:05.176Z,11.11
2023-03-12T19:57:33.858Z,11.59
2023-03-12T20:00:01.966Z,12.21
2023-03-12T20:02:32.159Z,12.45
2023-03-12T20:05:00.194Z,13.21
2023-03-12T20:07:28.035Z,12.33
2023-03-12T20:09:55.792Z,12.58
2023-03-12T20:12:23.733Z,13.06
2023-03-12T20:14:51.640Z,12.91
2023-03-12T20:17:19.286Z,13.41
2023-03-12T20:19:47.127Z,13.57
2023-03-12T20:22:15.442Z,12.44
2023-03-12T20:24:43.196Z,11.65
2023-03-12T20:27:11.021Z,12.09
2023-03-12T20:29:38.932Z,11.42
2023-03-12T20:32:06.833Z,11.95
2023-03-12T20:34:34.651Z,11.02
2023-03-12T20:37:02.363Z,11.20
2023-03-12T20:39:30.035Z,13.22
2023-03-12T20:41:57.970Z,11.91
2023-03-12T20:44:26.013Z,12.79
2023-03-12T20:46:53.781Z,13.20
2023-03-12T20:49:21.452Z,12.09
2023-03-12T20:51:49.429Z,12.66
2023-03-12T20:54:17.528Z,13.72
2023-03-12T20:56:45.306Z,13.59
2023-03-12T20:59:13.931Z,13.27
2023-03-12T21:01:41.910Z,11.64
2023-03-12T21:04:09.720Z,11.93
2023-03-12T21:06:37.756Z,11.69
2023-03-12T21:09:05.694Z,11.78
2023-03-12T21:11:33.501Z,11.31
2023-03-12T21:14:01.320Z,12.27
2023-03-12T21:16:29.064Z,11.67
2023-03-12T21:18:58.270Z,11.96
2023-03-12T21:21:26.482Z,11.58
2023-03-12T21:23:54.438Z,11.59
2023-03-12T21:26:22.142Z,11.37
2023-03-12T21:28:49.820Z,11.27
2023-03-12T21:31:18.132Z,11.87
2023-03-12T21:33:46.533Z,12.61
2023-03-12T21:36:16.110Z,9.97
2023-03-12T21:38:44.191Z,11.16
2023-03-12T21:41:18.130Z,11.09
2023-03-12T21:43:47.133Z,11.25
2023-03-12T21:46:19.018Z,11.66
2023-03-12T21:48:48.689Z,12.43
2023-03-12T21:51:17.836Z,11.28
2023-03-12T21:53:45.686Z,10.31
2023-03-12T21:56:13.628Z,9.22
2023-03-12T21:58:41.426Z,10.09
2023-03-12T22:01:15.840Z,10.18
2023-03-12T22:03:45.308Z,10.27
2023-03-12T22:06:14.980Z,10.19
2023-03-12T22:08:48.127Z,10.88
2023-03-12T22:11:17.193Z,9.84
2023-03-12T22:13:45.672Z,10.07
2023-03-12T22:16:14.845Z,9.49
2023-03-12T22:18:45.255Z,10.39
2023-03-12T22:21:19.005Z,10.07
2023-03-12T22:23:48.354Z,11.10
2023-03-12T22:26:16.853Z,10.12
2023-03-12T22:28:52.492Z,10.78
2023-03-12T22:31:22.414Z,10.25
2023-03-12T22:33:50.305Z,9.94
2023-03-12T22:36:19.649Z,10.29
2023-03-12T22:38:47.999Z,9.74
2023-03-12T22:41:27.559Z,9.66
2023-03-12T22:44:01.039Z,10.26
2023-03-12T22:46:29.478Z,10.89
2023-03-12T22:49:00.126Z,11.08
2023-03-12T22:51:30.566Z,9.79
2023-03-12T22:53:59.146Z,10.61
2023-03-12T22:56:27.262Z,11.01
2023-03-12T22:58:56.124Z,9.47
2023-03-12T23:01:25.085Z,10.57
2023-03-12T23:03:53.397Z,10.02
2023-03-12T23:06:24.885Z,10.14
2023-03-12T23:08:55.077Z,10.96
2023-03-12T23:11:25.528Z,10.87
2023-03-12T23:13:54.639Z,11.53
2023-03-12T23:16:25.086Z,10.86
2023-03-12T23:18:53.156Z,11.92
2023-03-12T23:21:22.972Z,10.70
2023-03-12T23:23:51.768Z,10.82
2023-03-12T23:26:23.417Z,10.76
2023-03-12T23:28:53.511Z,10.79
2023-03-12T23:31:21.704Z,10.60
2023-03-12T23:33:49.560Z,9.69
2023-03-12T23:36:23.355Z,9.74
2023-03-12T23:38:51.721Z,9.94
2023-03-12T23:41:25.791Z,9.60
2023-03-12T23:43:54.045Z,10.24
2023-03-12T23:46:22.002Z,9.47
2023-03-12T23:48:51.848Z,10.25
2023-03-12T23:51:26.303Z,10.43
2023-03-12T23:54:01.714Z,10.44
2023-03-12T23:56:34.068Z,10.17
2023-03-12T23:59:02.197Z,10.24
